sensor_id;sensor_type;location;lat;lon;timestamp;pressure;altitude;pressure_sealevel;temperature;humidity
41312;BME280;27061;41.648;24.568;2022-07-10T00:01:45;85831.91;;;14.73;69.67
41312;BME280;27061;41.648;24.568;2022-07-10T00:04:12;85834.69;;;14.73;69.93
41312;BME280;27061;41.648;24.568;2022-07-10T00:06:40;85840.28;;;14.73;68.96
41312;BME280;27061;41.648;24.568;2022-07-10T00:09:09;85836.16;;;14.72;68.99
41312;BME280;27061;41.648;24.568;2022-07-10T00:11:37;85828.00;;;14.63;69.04
41312;BME280;27061;41.648;24.568;2022-07-10T00:14:04;85799.41;;;14.40;68.91
41312;BME280;27061;41.648;24.568;2022-07-10T00:16:57;85809.09;;;14.41;68.36
41312;BME280;27061;41.648;24.568;2022-07-10T00:19:25;85835.38;;;14.73;67.96
41312;BME280;27061;41.648;24.568;2022-07-10T00:21:53;85840.63;;;14.60;69.04
41312;BME280;27061;41.648;24.568;2022-07-10T00:24:20;85809.00;;;14.45;68.59
41312;BME280;27061;41.648;24.568;2022-07-10T00:26:48;85839.13;;;14.63;68.22
41312;BME280;27061;41.648;24.568;2022-07-10T00:29:15;85822.78;;;14.51;67.13
41312;BME280;27061;41.648;24.568;2022-07-10T00:32:07;85812.81;;;14.32;67.83
41312;BME280;27061;41.648;24.568;2022-07-10T00:34:36;85793.75;;;14.15;67.96
41312;BME280;27061;41.648;24.568;2022-07-10T00:37:04;85832.25;;;14.34;68.15
41312;BME280;27061;41.648;24.568;2022-07-10T00:39:32;85838.41;;;14.38;68.41
41312;BME280;27061;41.648;24.568;2022-07-10T00:42:09;85817.00;;;14.30;68.34
41312;BME280;27061;41.648;24.568;2022-07-10T00:44:40;85791.66;;;14.16;68.19
41312;BME280;27061;41.648;24.568;2022-07-10T00:47:09;85831.38;;;14.41;68.31
41312;BME280;27061;41.648;24.568;2022-07-10T00:49:38;85836.94;;;14.41;68.13
41312;BME280;27061;41.648;24.568;2022-07-10T00:52:08;85797.09;;;14.20;68.69
41312;BME280;27061;41.648;24.568;2022-07-10T00:54:39;85830.72;;;14.41;68.32
41312;BME280;27061;41.648;24.568;2022-07-10T00:57:09;85810.69;;;14.32;68.10
41312;BME280;27061;41.648;24.568;2022-07-10T00:59:37;85799.75;;;14.26;68.20
41312;BME280;27061;41.648;24.568;2022-07-10T01:02:05;85811.81;;;14.43;67.11
41312;BME280;27061;41.648;24.568;2022-07-10T01:04:33;85794.25;;;14.22;67.80
41312;BME280;27061;41.648;24.568;2022-07-10T01:07:00;85797.22;;;14.16;68.28
41312;BME280;27061;41.648;24.568;2022-07-10T01:09:33;85829.91;;;14.44;67.75
41312;BME280;27061;41.648;24.568;2022-07-10T01:12:02;85797.09;;;14.20;67.70
41312;BME280;27061;41.648;24.568;2022-07-10T01:14:56;85785.25;;;13.95;68.57
41312;BME280;27061;41.648;24.568;2022-07-10T01:17:24;85796.25;;;13.99;68.28
41312;BME280;27061;41.648;24.568;2022-07-10T01:19:54;85806.31;;;14.14;68.29
41312;BME280;27061;41.648;24.568;2022-07-10T01:22:27;85812.66;;;14.11;68.28
41312;BME280;27061;41.648;24.568;2022-07-10T01:24:55;85816.91;;;14.08;69.03
41312;BME280;27061;41.648;24.568;2022-07-10T01:27:22;85800.63;;;13.91;68.94
41312;BME280;27061;41.648;24.568;2022-07-10T01:29:50;85774.50;;;13.78;68.91
41312;BME280;27061;41.648;24.568;2022-07-10T01:32:19;85781.13;;;13.91;68.68
41312;BME280;27061;41.648;24.568;2022-07-10T01:34:46;85798.13;;;14.08;68.11
41312;BME280;27061;41.648;24.568;2022-07-10T01:37:14;85801.63;;;14.07;68.77
41312;BME280;27061;41.648;24.568;2022-07-10T01:39:41;85798.25;;;14.02;68.78
41312;BME280;27061;41.648;24.568;2022-07-10T01:42:09;85794.00;;;14.05;68.89
41312;BME280;27061;41.648;24.568;2022-07-10T01:44:36;85765.72;;;13.68;69.64
41312;BME280;27061;41.648;24.568;2022-07-10T01:47:04;85793.53;;;13.97;68.93
41312;BME280;27061;41.648;24.568;2022-07-10T01:49:31;85789.81;;;14.06;68.48
41312;BME280;27061;41.648;24.568;2022-07-10T01:52:02;85789.13;;;14.06;69.02
41312;BME280;27061;41.648;24.568;2022-07-10T01:54:29;85796.34;;;13.97;69.30
41312;BME280;27061;41.648;24.568;2022-07-10T01:56:57;85785.25;;;13.95;68.99
41312;BME280;27061;41.648;24.568;2022-07-10T01:59:24;85790.22;;;13.90;69.66
41312;BME280;27061;41.648;24.568;2022-07-10T02:01:52;85775.06;;;13.85;69.39
41312;BME280;27061;41.648;24.568;2022-07-10T02:04:19;85768.47;;;13.70;69.82
41312;BME280;27061;41.648;24.568;2022-07-10T02:07:10;85781.34;;;13.83;70.05
41312;BME280;27061;41.648;24.568;2022-07-10T02:09:38;85774.47;;;13.80;69.69
41312;BME280;27061;41.648;24.568;2022-07-10T02:12:11;85747.06;;;13.64;69.76
41312;BME280;27061;41.648;24.568;2022-07-10T02:14:40;85785.34;;;13.90;69.66
41312;BME280;27061;41.648;24.568;2022-07-10T02:17:09;85785.25;;;13.95;69.53
41312;BME280;27061;41.648;24.568;2022-07-10T02:19:36;85781.81;;;13.92;69.89
41312;BME280;27061;41.648;24.568;2022-07-10T02:22:04;85736.25;;;13.52;70.64
41312;BME280;27061;41.648;24.568;2022-07-10T02:24:32;85787.34;;;13.94;69.91
41312;BME280;27061;41.648;24.568;2022-07-10T02:27:02;85779.22;;;13.86;69.87
41312;BME280;27061;41.648;24.568;2022-07-10T02:29:30;85771.16;;;13.74;70.55
41312;BME280;27061;41.648;24.568;2022-07-10T02:31:58;85775.94;;;13.77;70.46
41312;BME280;27061;41.648;24.568;2022-07-10T02:34:25;85754.81;;;13.60;71.07
41312;BME280;27061;41.648;24.568;2022-07-10T02:36:53;85745.84;;;13.57;70.49
41312;BME280;27061;41.648;24.568;2022-07-10T02:39:20;85767.75;;;13.71;70.71
41312;BME280;27061;41.648;24.568;2022-07-10T02:41:50;85740.28;;;13.57;70.47
41312;BME280;27061;41.648;24.568;2022-07-10T02:44:17;85737.56;;;13.55;70.24
41312;BME280;27061;41.648;24.568;2022-07-10T02:47:10;85768.25;;;13.78;70.61
41312;BME280;27061;41.648;24.568;2022-07-10T02:49:38;85767.06;;;13.71;70.51
41312;BME280;27061;41.648;24.568;2022-07-10T02:52:06;85756.66;;;13.69;70.36
41312;BME280;27061;41.648;24.568;2022-07-10T02:54:33;85745.75;;;13.61;69.77
41312;BME280;27061;41.648;24.568;2022-07-10T02:57:01;85765.44;;;13.80;69.64
41312;BME280;27061;41.648;24.568;2022-07-10T02:59:28;85755.19;;;13.72;69.72
41312;BME280;27061;41.648;24.568;2022-07-10T03:01:56;85763.59;;;13.70;69.78
41312;BME280;27061;41.648;24.568;2022-07-10T03:04:24;85778.47;;;13.87;69.72
41312;BME280;27061;41.648;24.568;2022-07-10T03:06:51;85781.25;;;13.87;69.89
41312;BME280;27061;41.648;24.568;2022-07-10T03:09:19;85778.22;;;13.98;69.41
41312;BME280;27061;41.648;24.568;2022-07-10T03:12:17;85786.72;;;13.91;69.56
41312;BME280;27061;41.648;24.568;2022-07-10T03:14:45;85749.84;;;13.64;69.70
41312;BME280;27061;41.648;24.568;2022-07-10T03:17:12;85745.94;;;13.53;70.29
41312;BME280;27061;41.648;24.568;2022-07-10T03:19:40;85775.69;;;13.87;69.74
41312;BME280;27061;41.648;24.568;2022-07-10T03:22:12;85781.25;;;13.87;69.80
41312;BME280;27061;41.648;24.568;2022-07-10T03:24:39;85782.59;;;13.88;69.58
41312;BME280;27061;41.648;24.568;2022-07-10T03:27:07;85756.72;;;13.67;69.58
41312;BME280;27061;41.648;24.568;2022-07-10T03:29:35;85742.97;;;13.61;69.83
41312;BME280;27061;41.648;24.568;2022-07-10T03:32:03;85762.00;;;13.77;69.39
41312;BME280;27061;41.648;24.568;2022-07-10T03:34:32;85760.47;;;13.84;69.28
41312;BME280;27061;41.648;24.568;2022-07-10T03:37:00;85761.34;;;13.77;69.53
41312;BME280;27061;41.648;24.568;2022-07-10T03:39:28;85784.47;;;13.98;69.45
41312;BME280;27061;41.648;24.568;2022-07-10T03:41:56;85781.00;;;13.98;69.64
41312;BME280;27061;41.648;24.568;2022-07-10T03:44:24;85739.84;;;13.75;69.24
41312;BME280;27061;41.648;24.568;2022-07-10T03:46:51;85746.59;;;13.82;69.14
41312;BME280;27061;41.648;24.568;2022-07-10T03:49:44;85764.34;;;13.96;69.57
41312;BME280;27061;41.648;24.568;2022-07-10T03:52:12;85752.06;;;13.86;69.82
41312;BME280;27061;41.648;24.568;2022-07-10T03:54:41;85763.19;;;13.86;70.27
41312;BME280;27061;41.648;24.568;2022-07-10T03:57:08;85728.38;;;13.61;70.30
41312;BME280;27061;41.648;24.568;2022-07-10T04:00:24;85750.47;;;13.67;71.05
41312;BME280;27061;41.648;24.568;2022-07-10T04:05:24;85773.69;;;13.84;72.10
41312;BME280;27061;41.648;24.568;2022-07-10T04:07:51;85772.09;;;13.91;71.80
41312;BME280;27061;41.648;24.568;2022-07-10T04:10:26;85736.06;;;13.58;72.27
41312;BME280;27061;41.648;24.568;2022-07-10T04:12:55;85770.13;;;13.87;72.36
41312;BME280;27061;41.648;24.568;2022-07-10T04:15:23;85774.25;;;13.88;72.20
41312;BME280;27061;41.648;24.568;2022-07-10T04:17:51;85762.34;;;13.92;72.09
41312;BME280;27061;41.648;24.568;2022-07-10T04:20:19;85738.56;;;13.70;72.28
41312;BME280;27061;41.648;24.568;2022-07-10T04:22:47;85769.88;;;13.98;73.22
41312;BME280;27061;41.648;24.568;2022-07-10T04:25:14;85742.50;;;13.79;74.32
41312;BME280;27061;41.648;24.568;2022-07-10T04:27:42;85775.34;;;14.00;74.56
41312;BME280;27061;41.648;24.568;2022-07-10T04:30:09;85746.59;;;13.82;75.34
41312;BME280;27061;41.648;24.568;2022-07-10T04:32:38;85734.63;;;13.61;76.09
41312;BME280;27061;41.648;24.568;2022-07-10T04:35:05;85752.13;;;13.84;76.44
41312;BME280;27061;41.648;24.568;2022-07-10T04:37:34;85761.53;;;13.98;76.16
41312;BME280;27061;41.648;24.568;2022-07-10T04:40:01;85741.06;;;13.80;74.07
41312;BME280;27061;41.648;24.568;2022-07-10T04:42:29;85769.47;;;14.12;75.55
41312;BME280;27061;41.648;24.568;2022-07-10T04:44:56;85769.25;;;14.20;74.66
41312;BME280;27061;41.648;24.568;2022-07-10T04:47:49;85769.16;;;14.24;72.82
41312;BME280;27061;41.648;24.568;2022-07-10T04:50:17;85764.53;;;14.14;73.47
41312;BME280;27061;41.648;24.568;2022-07-10T04:52:45;85751.59;;;14.05;72.70
41312;BME280;27061;41.648;24.568;2022-07-10T04:55:38;85771.22;;;14.25;73.36
41312;BME280;27061;41.648;24.568;2022-07-10T04:58:05;85729.22;;;14.09;73.77
41312;BME280;27061;41.648;24.568;2022-07-10T05:00:33;85738.75;;;14.16;72.76
41312;BME280;27061;41.648;24.568;2022-07-10T05:03:00;85748.25;;;14.25;72.52
41312;BME280;27061;41.648;24.568;2022-07-10T05:05:28;85750.94;;;14.29;74.79
41312;BME280;27061;41.648;24.568;2022-07-10T05:07:55;85764.72;;;14.33;72.07
41312;BME280;27061;41.648;24.568;2022-07-10T05:10:25;85766.16;;;14.32;74.18
41312;BME280;27061;41.648;24.568;2022-07-10T05:12:52;85753.09;;;14.26;73.37
41312;BME280;27061;41.648;24.568;2022-07-10T05:15:23;85735.53;;;14.32;74.77
41312;BME280;27061;41.648;24.568;2022-07-10T05:17:51;85760.00;;;14.54;71.88
41312;BME280;27061;41.648;24.568;2022-07-10T05:20:19;85736.69;;;14.41;73.60
41312;BME280;27061;41.648;24.568;2022-07-10T05:22:47;85752.09;;;14.63;74.63
41312;BME280;27061;41.648;24.568;2022-07-10T05:25:15;85752.84;;;14.61;73.85
41312;BME280;27061;41.648;24.568;2022-07-10T05:27:43;85754.03;;;14.69;76.16
41312;BME280;27061;41.648;24.568;2022-07-10T05:30:14;85715.78;;;14.42;75.96
41312;BME280;27061;41.648;24.568;2022-07-10T05:32:44;85745.53;;;14.73;77.08
41312;BME280;27061;41.648;24.568;2022-07-10T05:35:36;85757.03;;;14.85;74.00
41312;BME280;27061;41.648;24.568;2022-07-10T05:38:04;85748.06;;;14.83;76.01
41312;BME280;27061;41.648;24.568;2022-07-10T05:40:31;85720.47;;;14.73;78.41
41312;BME280;27061;41.648;24.568;2022-07-10T05:42:58;85760.53;;;15.09;71.74
41312;BME280;27061;41.648;24.568;2022-07-10T05:53:37;85745.44;;;15.68;71.05
41312;BME280;27061;41.648;24.568;2022-07-10T05:56:05;85736.53;;;15.63;71.79
41312;BME280;27061;41.648;24.568;2022-07-10T05:58:33;85765.34;;;15.79;70.45
41312;BME280;27061;41.648;24.568;2022-07-10T06:01:02;85772.69;;;15.67;70.27
41312;BME280;27061;41.648;24.568;2022-07-10T06:03:30;85766.56;;;15.63;72.72
41312;BME280;27061;41.648;24.568;2022-07-10T06:05:58;85752.66;;;15.61;74.43
41312;BME280;27061;41.648;24.568;2022-07-10T06:08:27;85771.88;;;15.71;68.63
41312;BME280;27061;41.648;24.568;2022-07-10T06:10:54;85761.56;;;15.88;70.43
41312;BME280;27061;41.648;24.568;2022-07-10T06:13:46;85736.41;;;15.67;74.14
41312;BME280;27061;41.648;24.568;2022-07-10T06:16:14;85756.22;;;15.80;75.02
41312;BME280;27061;41.648;24.568;2022-07-10T06:18:42;85760.19;;;15.87;73.92
41312;BME280;27061;41.648;24.568;2022-07-10T06:21:10;85763.25;;;16.00;71.95
41312;BME280;27061;41.648;24.568;2022-07-10T06:23:37;85731.03;;;15.82;67.66
41312;BME280;27061;41.648;24.568;2022-07-10T06:26:04;85762.94;;;16.10;72.06
41312;BME280;27061;41.648;24.568;2022-07-10T06:28:35;85734.59;;;16.01;71.96
41312;BME280;27061;41.648;24.568;2022-07-10T06:31:04;85753.38;;;16.24;70.76
41312;BME280;27061;41.648;24.568;2022-07-10T06:33:57;85763.94;;;16.42;73.86
41312;BME280;27061;41.648;24.568;2022-07-10T06:36:25;85766.59;;;16.46;69.85
41312;BME280;27061;41.648;24.568;2022-07-10T06:38:59;85764.94;;;16.53;67.71
41312;BME280;27061;41.648;24.568;2022-07-10T06:41:27;85757.00;;;16.41;66.76
41312;BME280;27061;41.648;24.568;2022-07-10T06:43:55;85772.84;;;16.67;70.47
41312;BME280;27061;41.648;24.568;2022-07-10T06:46:22;85782.38;;;16.74;71.82
41312;BME280;27061;41.648;24.568;2022-07-10T06:48:53;85778.31;;;16.71;68.90
41312;BME280;27061;41.648;24.568;2022-07-10T06:51:48;85774.94;;;16.88;72.07
41312;BME280;27061;41.648;24.568;2022-07-10T06:54:15;85758.84;;;16.88;74.02
41312;BME280;27061;41.648;24.568;2022-07-10T06:56:43;85788.47;;;17.00;69.67
41312;BME280;27061;41.648;24.568;2022-07-10T06:59:11;85785.25;;;17.12;70.82
41312;BME280;27061;41.648;24.568;2022-07-10T07:01:42;85797.56;;;17.19;67.65
41312;BME280;27061;41.648;24.568;2022-07-10T07:04:10;85787.66;;;17.22;66.59
41312;BME280;27061;41.648;24.568;2022-07-10T07:06:38;85761.19;;;17.00;63.82
41312;BME280;27061;41.648;24.568;2022-07-10T07:09:06;85779.19;;;17.24;68.56
41312;BME280;27061;41.648;24.568;2022-07-10T07:11:34;85776.53;;;17.20;65.25
41312;BME280;27061;41.648;24.568;2022-07-10T07:14:02;85787.97;;;17.33;69.49
41312;BME280;27061;41.648;24.568;2022-07-10T07:16:30;85786.97;;;17.40;65.33
41312;BME280;27061;41.648;24.568;2022-07-10T07:19:10;85734.22;;;16.93;65.61
41312;BME280;27061;41.648;24.568;2022-07-10T07:21:38;85787.66;;;17.41;68.66
41312;BME280;27061;41.648;24.568;2022-07-10T07:24:49;85786.91;;;17.42;66.90
41312;BME280;27061;41.648;24.568;2022-07-10T07:27:16;85769.88;;;17.30;66.01
41312;BME280;27061;41.648;24.568;2022-07-10T07:29:44;85779.19;;;17.43;66.11
41312;BME280;27061;41.648;24.568;2022-07-10T07:32:11;85768.63;;;17.27;63.50
41312;BME280;27061;41.648;24.568;2022-07-10T07:34:38;85767.94;;;17.26;63.12
41312;BME280;27061;41.648;24.568;2022-07-10T07:37:06;85764.75;;;17.36;65.69
41312;BME280;27061;41.648;24.568;2022-07-10T07:39:33;85773.53;;;17.26;61.63
41312;BME280;27061;41.648;24.568;2022-07-10T07:42:02;85773.06;;;17.38;63.26
41312;BME280;27061;41.648;24.568;2022-07-10T07:44:29;85791.50;;;17.50;66.29
41312;BME280;27061;41.648;24.568;2022-07-10T07:46:59;85765.22;;;17.24;67.72
41312;BME280;27061;41.648;24.568;2022-07-10T07:49:27;85751.44;;;17.18;62.76
41312;BME280;27061;41.648;24.568;2022-07-10T07:51:55;85760.53;;;17.37;66.28
41312;BME280;27061;41.648;24.568;2022-07-10T07:54:22;85779.34;;;17.58;67.12
41312;BME280;27061;41.648;24.568;2022-07-10T07:56:49;85769.66;;;17.54;66.74
41312;BME280;27061;41.648;24.568;2022-07-10T07:59:17;85798.88;;;17.78;66.97
41312;BME280;27061;41.648;24.568;2022-07-10T08:01:44;85785.94;;;17.69;67.22
41312;BME280;27061;41.648;24.568;2022-07-10T08:04:18;85799.97;;;17.85;67.29
41312;BME280;27061;41.648;24.568;2022-07-10T08:06:45;85755.22;;;17.67;68.16
41312;BME280;27061;41.648;24.568;2022-07-10T08:09:13;85808.13;;;18.10;65.89
41312;BME280;27061;41.648;24.568;2022-07-10T08:11:40;85807.09;;;18.18;63.70
41312;BME280;27061;41.648;24.568;2022-07-10T08:14:08;85778.75;;;17.90;63.01
41312;BME280;27061;41.648;24.568;2022-07-10T08:16:35;85798.16;;;18.13;63.73
41312;BME280;27061;41.648;24.568;2022-07-10T08:19:03;85756.97;;;17.93;59.10
41312;BME280;27061;41.648;24.568;2022-07-10T08:21:32;85793.03;;;18.20;60.77
41312;BME280;27061;41.648;24.568;2022-07-10T08:24:00;85794.53;;;18.17;61.30
41312;BME280;27061;41.648;24.568;2022-07-10T08:26:28;85799.41;;;18.35;63.60
41312;BME280;27061;41.648;24.568;2022-07-10T08:28:55;85813.25;;;18.56;66.26
41312;BME280;27061;41.648;24.568;2022-07-10T08:31:23;85794.59;;;18.50;67.20
41312;BME280;27061;41.648;24.568;2022-07-10T08:33:51;85804.78;;;18.58;60.55
41312;BME280;27061;41.648;24.568;2022-07-10T08:36:19;85790.78;;;18.58;59.70
41312;BME280;27061;41.648;24.568;2022-07-10T08:39:07;85813.88;;;18.75;61.71
41312;BME280;27061;41.648;24.568;2022-07-10T08:42:00;85820.78;;;18.78;61.77
41312;BME280;27061;41.648;24.568;2022-07-10T08:44:28;85803.28;;;18.61;62.12
41312;BME280;27061;41.648;24.568;2022-07-10T08:47:01;85829.28;;;18.76;61.26
41312;BME280;27061;41.648;24.568;2022-07-10T08:49:30;85823.16;;;18.72;59.80
41312;BME280;27061;41.648;24.568;2022-07-10T08:52:13;85820.97;;;18.74;63.20
41312;BME280;27061;41.648;24.568;2022-07-10T08:54:45;85827.16;;;18.77;61.10
41312;BME280;27061;41.648;24.568;2022-07-10T08:57:15;85824.59;;;18.87;62.18
41312;BME280;27061;41.648;24.568;2022-07-10T08:59:44;85806.50;;;18.84;62.49
41312;BME280;27061;41.648;24.568;2022-07-10T09:02:12;85824.94;;;19.13;64.24
41312;BME280;27061;41.648;24.568;2022-07-10T09:04:39;85801.16;;;18.95;61.29
41312;BME280;27061;41.648;24.568;2022-07-10T09:07:07;85818.22;;;19.06;59.46
41312;BME280;27061;41.648;24.568;2022-07-10T09:09:55;85828.91;;;19.18;59.07
41312;BME280;27061;41.648;24.568;2022-07-10T09:13:14;85816.50;;;19.13;62.57
41312;BME280;27061;41.648;24.568;2022-07-10T09:15:48;85817.69;;;19.18;62.08
41312;BME280;27061;41.648;24.568;2022-07-10T09:18:19;85832.56;;;19.31;60.24
41312;BME280;27061;41.648;24.568;2022-07-10T09:20:50;85796.34;;;19.08;61.82
41312;BME280;27061;41.648;24.568;2022-07-10T09:25:46;85789.59;;;19.34;60.65
41312;BME280;27061;41.648;24.568;2022-07-10T09:28:38;85807.25;;;19.64;60.48
41312;BME280;27061;41.648;24.568;2022-07-10T09:31:07;85809.66;;;19.72;58.37
41312;BME280;27061;41.648;24.568;2022-07-10T09:33:34;85831.34;;;19.91;57.39
41312;BME280;27061;41.648;24.568;2022-07-10T09:36:32;85821.25;;;19.96;55.29
41312;BME280;27061;41.648;24.568;2022-07-10T09:39:07;85812.91;;;19.79;56.75
41312;BME280;27061;41.648;24.568;2022-07-10T09:41:35;85830.88;;;20.01;55.13
41312;BME280;27061;41.648;24.568;2022-07-10T09:44:04;85826.19;;;19.95;56.33
41312;BME280;27061;41.648;24.568;2022-07-10T09:46:33;85826.88;;;19.96;57.76
41312;BME280;27061;41.648;24.568;2022-07-10T09:51:38;85836.38;;;20.03;58.24
41312;BME280;27061;41.648;24.568;2022-07-10T09:54:13;85844.44;;;20.11;57.25
41312;BME280;27061;41.648;24.568;2022-07-10T09:56:46;85833.28;;;20.09;58.52
41312;BME280;27061;41.648;24.568;2022-07-10T09:59:18;85801.38;;;19.85;58.34
41312;BME280;27061;41.648;24.568;2022-07-10T10:01:48;85838.72;;;20.13;57.70
41312;BME280;27061;41.648;24.568;2022-07-10T10:04:20;85839.09;;;20.05;55.31
41312;BME280;27061;41.648;24.568;2022-07-10T10:06:56;85840.28;;;20.10;55.46
41312;BME280;27061;41.648;24.568;2022-07-10T10:09:51;85842.41;;;20.09;57.03
41312;BME280;27061;41.648;24.568;2022-07-10T10:12:58;85840.75;;;20.00;59.61
41312;BME280;27061;41.648;24.568;2022-07-10T10:15:27;85842.09;;;20.01;59.09
41312;BME280;27061;41.648;24.568;2022-07-10T10:17:54;85840.16;;;19.97;60.02
41312;BME280;27061;41.648;24.568;2022-07-10T10:20:22;85832.09;;;20.04;59.74
41312;BME280;27061;41.648;24.568;2022-07-10T10:23:05;85820.09;;;19.91;59.52
41312;BME280;27061;41.648;24.568;2022-07-10T10:25:38;85824.16;;;19.94;61.30
41312;BME280;27061;41.648;24.568;2022-07-10T10:28:08;85826.56;;;19.87;61.38
41312;BME280;27061;41.648;24.568;2022-07-10T10:30:45;85834.16;;;20.05;61.28
41312;BME280;27061;41.648;24.568;2022-07-10T10:39:10;85830.41;;;20.11;58.50
41312;BME280;27061;41.648;24.568;2022-07-10T10:41:42;85833.59;;;20.18;57.66
41312;BME280;27061;41.648;24.568;2022-07-10T10:49:51;85819.22;;;19.94;56.91
41312;BME280;27061;41.648;24.568;2022-07-10T10:52:20;85846.63;;;19.94;57.96
41312;BME280;27061;41.648;24.568;2022-07-10T11:00:33;85842.34;;;19.80;64.22
41312;BME280;27061;41.648;24.568;2022-07-10T11:03:33;85832.03;;;19.60;66.43
41312;BME280;27061;41.648;24.568;2022-07-10T11:06:01;85837.50;;;19.79;67.14
41312;BME280;27061;41.648;24.568;2022-07-10T11:08:41;85828.53;;;19.59;69.02
41312;BME280;27061;41.648;24.568;2022-07-10T11:13:59;85840.09;;;19.51;71.63
41312;BME280;27061;41.648;24.568;2022-07-10T11:16:27;85829.09;;;19.62;71.33
41312;BME280;27061;41.648;24.568;2022-07-10T11:18:56;85828.63;;;19.41;70.38
41312;BME280;27061;41.648;24.568;2022-07-10T11:21:28;85839.19;;;19.71;74.56
41312;BME280;27061;41.648;24.568;2022-07-10T11:27:02;85841.03;;;19.62;73.23
41312;BME280;27061;41.648;24.568;2022-07-10T11:29:36;85835.56;;;19.27;68.76
41312;BME280;27061;41.648;24.568;2022-07-10T11:32:05;85805.38;;;19.11;68.48
41312;BME280;27061;41.648;24.568;2022-07-10T11:34:36;85810.63;;;19.19;71.23
41312;BME280;27061;41.648;24.568;2022-07-10T11:37:15;85830.84;;;19.38;70.57
41312;BME280;27061;41.648;24.568;2022-07-10T11:39:43;85836.97;;;19.43;71.10
41312;BME280;27061;41.648;24.568;2022-07-10T11:42:11;85829.13;;;19.45;70.92
41312;BME280;27061;41.648;24.568;2022-07-10T11:44:38;85844.38;;;19.50;68.16
41312;BME280;27061;41.648;24.568;2022-07-10T11:47:06;85809.84;;;19.37;63.08
41312;BME280;27061;41.648;24.568;2022-07-10T11:49:44;85849.63;;;19.58;63.42
41312;BME280;27061;41.648;24.568;2022-07-10T11:52:13;85827.00;;;19.46;65.10
41312;BME280;27061;41.648;24.568;2022-07-10T11:54:41;85846.56;;;19.64;60.52
41312;BME280;27061;41.648;24.568;2022-07-10T12:00:30;85836.72;;;19.32;62.51
41312;BME280;27061;41.648;24.568;2022-07-10T12:03:17;85847.94;;;19.32;62.16
41312;BME280;27061;41.648;24.568;2022-07-10T12:05:46;85824.31;;;19.27;64.05
41312;BME280;27061;41.648;24.568;2022-07-10T12:08:13;85824.66;;;19.19;63.41
41312;BME280;27061;41.648;24.568;2022-07-10T12:11:11;85848.69;;;19.47;63.13
41312;BME280;27061;41.648;24.568;2022-07-10T12:13:38;85829.91;;;19.44;62.07
41312;BME280;27061;41.648;24.568;2022-07-10T12:16:06;85834.31;;;19.55;61.93
41312;BME280;27061;41.648;24.568;2022-07-10T12:18:34;85836.69;;;19.65;63.21
41312;BME280;27061;41.648;24.568;2022-07-10T12:21:02;85824.63;;;19.52;62.24
41312;BME280;27061;41.648;24.568;2022-07-10T12:23:30;85801.91;;;19.58;63.45
41312;BME280;27061;41.648;24.568;2022-07-10T12:25:57;85800.91;;;19.81;58.70
41312;BME280;27061;41.648;24.568;2022-07-10T12:28:28;85785.75;;;19.73;57.96
41312;BME280;27061;41.648;24.568;2022-07-10T12:30:56;85804.69;;;19.90;59.90
41312;BME280;27061;41.648;24.568;2022-07-10T12:33:24;85809.38;;;20.10;59.84
41312;BME280;27061;41.648;24.568;2022-07-10T12:35:58;85821.28;;;20.25;59.09
41312;BME280;27061;41.648;24.568;2022-07-10T12:38:27;85802.47;;;20.07;55.92
41312;BME280;27061;41.648;24.568;2022-07-10T12:41:11;85818.97;;;20.30;55.83
41312;BME280;27061;41.648;24.568;2022-07-10T12:43:39;85796.56;;;20.28;58.25
41312;BME280;27061;41.648;24.568;2022-07-10T12:46:09;85759.06;;;20.04;58.57
41312;BME280;27061;41.648;24.568;2022-07-10T12:48:37;85799.13;;;20.34;60.60
41312;BME280;27061;41.648;24.568;2022-07-10T12:51:23;85805.78;;;20.56;61.22
41312;BME280;27061;41.648;24.568;2022-07-10T12:53:52;85795.44;;;20.52;61.11
41312;BME280;27061;41.648;24.568;2022-07-10T12:56:36;85808.16;;;20.66;59.53
41312;BME280;27061;41.648;24.568;2022-07-10T12:59:13;85768.88;;;20.49;60.02
41312;BME280;27061;41.648;24.568;2022-07-10T13:01:43;85790.47;;;20.82;58.22
41312;BME280;27061;41.648;24.568;2022-07-10T13:04:12;85797.22;;;20.87;57.52
41312;BME280;27061;41.648;24.568;2022-07-10T13:06:40;85802.66;;;20.91;58.38
41312;BME280;27061;41.648;24.568;2022-07-10T13:09:25;85800.69;;;21.02;52.93
41312;BME280;27061;41.648;24.568;2022-07-10T13:11:53;85806.91;;;21.05;55.81
41312;BME280;27061;41.648;24.568;2022-07-10T13:14:21;85769.31;;;20.83;57.17
41312;BME280;27061;41.648;24.568;2022-07-10T13:16:49;85769.09;;;20.87;58.49
41312;BME280;27061;41.648;24.568;2022-07-10T13:19:17;85724.16;;;20.58;58.70
41312;BME280;27061;41.648;24.568;2022-07-10T13:21:44;85784.31;;;21.07;58.60
41312;BME280;27061;41.648;24.568;2022-07-10T13:24:11;85792.13;;;21.19;60.31
41312;BME280;27061;41.648;24.568;2022-07-10T13:26:38;85777.41;;;21.18;60.71
41312;BME280;27061;41.648;24.568;2022-07-10T13:29:06;85783.34;;;21.40;60.74
41312;BME280;27061;41.648;24.568;2022-07-10T13:31:34;85787.44;;;21.55;60.78
41312;BME280;27061;41.648;24.568;2022-07-10T13:34:02;85776.66;;;21.60;59.97
41312;BME280;27061;41.648;24.568;2022-07-10T13:36:30;85752.94;;;21.42;58.51
41312;BME280;27061;41.648;24.568;2022-07-10T13:38:58;85749.09;;;21.35;54.65
41312;BME280;27061;41.648;24.568;2022-07-10T13:41:25;85756.16;;;21.34;53.14
41312;BME280;27061;41.648;24.568;2022-07-10T13:43:53;85754.91;;;21.31;54.79
41312;BME280;27061;41.648;24.568;2022-07-10T13:46:20;85771.72;;;21.73;53.53
41312;BME280;27061;41.648;24.568;2022-07-10T13:49:13;85777.03;;;21.79;58.42
41312;BME280;27061;41.648;24.568;2022-07-10T13:51:40;85741.25;;;21.50;56.84
41312;BME280;27061;41.648;24.568;2022-07-10T13:54:08;85768.09;;;21.62;56.11